Time;durP1;ratioP1;P1;durP2;ratioP2;P2;SDS_P1;SDS_P2;PMS_P1;PMS_P2;Temp;Humidity;BMP_temperature;BMP_pressure;BME280_temperature;BME280_humidity;BME280_pressure;Samples;Min_cycle;Max_cycle;Signal;HPM_P1;HPM_P2
2022/09/08 00:00:09;;;;;;;2.88;1.70;;;;;;;20.87;66.25;98936.69;346662;28;1797;-68
2022/09/08 00:00:21;;;;;;;3.45;1.80;;;;;;;20.90;65.87;98931.13;347265;28;1899;-67
2022/09/08 00:00:37;;;;;;;2.60;1.50;;;;;;;20.91;66.18;98935.44;346600;28;1312;-68
2022/09/08 00:00:50;;;;;;;2.60;1.60;;;;;;;20.87;65.48;98937.50;346799;28;1281;-67
2022/09/08 00:01:12;;;;;;;2.50;1.55;;;;;;;20.90;65.65;98933.75;347901;28;1133;-68
2022/09/08 00:01:24;;;;;;;1.77;1.30;;;;;;;20.94;66.18;98935.16;346395;28;1677;-67
2022/09/08 00:01:36;;;;;;;2.55;1.35;;;;;;;20.95;66.23;98937.66;346657;28;1065;-68
2022/09/08 00:01:48;;;;;;;2.70;1.40;;;;;;;20.96;66.46;98935.84;345821;28;1764;-67
2022/09/08 00:02:01;;;;;;;2.08;1.48;;;;;;;20.98;66.91;98936.56;347649;28;1189;-67
2022/09/08 00:02:13;;;;;;;1.50;1.40;;;;;;;20.98;66.42;98933.91;346934;28;1836;-67
2022/09/08 00:02:25;;;;;;;2.13;1.50;;;;;;;21.00;66.54;98931.97;346673;28;1738;-67
2022/09/08 00:02:37;;;;;;;2.55;1.50;;;;;;;21.03;66.82;98934.38;347729;28;1967;-67
2022/09/08 00:02:49;;;;;;;2.38;1.50;;;;;;;21.04;66.99;98935.19;347722;28;1236;-68
2022/09/08 00:03:04;;;;;;;2.53;1.50;;;;;;;21.06;66.92;98935.91;346442;28;2474;-68
2022/09/08 00:03:21;;;;;;;2.30;1.40;;;;;;;21.06;66.88;98936.72;346394;28;1347;-66
2022/09/08 00:03:35;;;;;;;2.45;1.30;;;;;;;21.09;67.10;98936.47;346333;28;1623;-67
2022/09/08 00:03:47;;;;;;;2.85;1.35;;;;;;;21.10;66.73;98942.59;346720;28;1859;-68
2022/09/08 00:04:02;;;;;;;2.35;1.40;;;;;;;21.11;66.93;98931.88;346418;28;1359;-67
2022/09/08 00:04:14;;;;;;;1.92;1.50;;;;;;;21.14;67.37;98934.25;346882;28;1826;-68
2022/09/08 00:04:26;;;;;;;2.05;1.40;;;;;;;21.15;67.54;98935.94;346709;28;1943;-67
2022/09/08 00:04:39;;;;;;;2.53;1.42;;;;;;;21.18;67.57;98936.63;347900;28;1100;-67
2022/09/08 00:04:52;;;;;;;3.00;1.45;;;;;;;21.17;68.36;98934.94;346892;28;1770;-69
2022/09/08 00:05:06;;;;;;;3.88;1.60;;;;;;;21.19;68.55;98940.94;347601;28;1038;-68
2022/09/08 00:05:22;;;;;;;4.00;1.70;;;;;;;21.21;67.16;98939.00;346883;28;1749;-68
2022/09/08 00:05:44;;;;;;;2.38;1.55;;;;;;;21.20;67.30;98934.69;346743;28;1716;-68
2022/09/08 00:06:01;;;;;;;2.10;1.70;;;;;;;21.21;67.48;98933.69;347487;28;1015;-67
2022/09/08 00:06:16;;;;;;;1.90;1.50;;;;;;;21.19;68.02;98940.94;346694;28;2151;-67
2022/09/08 00:06:31;;;;;;;1.98;1.50;;;;;;;21.20;66.75;98937.34;347237;28;1200;-66
2022/09/08 00:06:46;;;;;;;2.40;1.40;;;;;;;21.23;65.64;98934.41;347619;28;1038;-68
2022/09/08 00:07:01;;;;;;;2.28;1.33;;;;;;;21.23;65.42;98939.69;347887;28;1194;-68
2022/09/08 00:07:13;;;;;;;2.60;1.40;;;;;;;21.26;65.74;98942.06;346699;28;1766;-67
2022/09/08 00:07:26;;;;;;;2.97;1.52;;;;;;;21.26;65.56;98939.44;347101;28;1668;-68
2022/09/08 00:07:39;;;;;;;2.58;1.40;;;;;;;21.26;66.17;98932.31;346964;28;1604;-68
2022/09/08 00:07:54;;;;;;;2.65;1.50;;;;;;;21.29;66.48;98944.47;346579;28;2276;-68
2022/09/08 00:08:07;;;;;;;2.53;1.60;;;;;;;21.31;67.35;98945.16;347858;28;1713;-67
2022/09/08 00:08:20;;;;;;;2.10;1.60;;;;;;;21.32;67.01;98946.81;346106;28;1911;-67
2022/09/08 00:08:34;;;;;;;2.10;1.60;;;;;;;21.28;65.87;98940.13;347911;28;1292;-68
2022/09/08 00:08:47;;;;;;;2.90;1.65;;;;;;;21.25;65.41;98943.88;347184;28;1709;-68
2022/09/08 00:08:59;;;;;;;2.90;1.50;;;;;;;21.24;64.72;98944.84;347573;28;1662;-68
2022/09/08 00:09:11;;;;;;;1.67;1.33;;;;;;;21.25;64.68;98937.75;347808;28;1033;-67
2022/09/08 00:09:23;;;;;;;1.90;1.40;;;;;;;21.26;65.23;98942.06;346720;28;1474;-67
2022/09/08 00:09:35;;;;;;;2.10;1.38;;;;;;;21.27;65.18;98943.72;347978;28;1179;-68
2022/09/08 00:09:47;;;;;;;2.22;1.48;;;;;;;21.27;65.35;98949.00;348003;28;1109;-67
2022/09/08 00:10:00;;;;;;;1.80;1.40;;;;;;;21.26;65.39;98944.72;347948;28;1050;-68
2022/09/08 00:10:12;;;;;;;1.73;1.38;;;;;;;21.26;65.29;98947.34;346911;28;1771;-68
2022/09/08 00:10:26;;;;;;;1.40;1.25;;;;;;;21.27;65.53;98949.00;347068;28;1574;-68
2022/09/08 00:10:40;;;;;;;3.08;1.40;;;;;;;21.26;66.04;98939.44;346394;28;1066;-68
2022/09/08 00:10:55;;;;;;;3.90;1.50;;;;;;;21.27;66.20;98943.72;346623;28;1710;-68
2022/09/08 00:11:09;;;;;;;4.47;1.70;;;;;;;21.29;66.48;98944.47;347488;28;1923;-66
2022/09/08 00:11:28;;;;;;;3.58;1.70;;;;;;;21.32;67.17;98947.66;346689;28;1531;-68
2022/09/08 00:11:40;;;;;;;1.80;1.52;;;;;;;21.34;67.37;98936.94;346432;28;1177;-68
2022/09/08 00:11:52;;;;;;;2.30;1.65;;;;;;;21.34;68.02;98940.41;346504;28;1132;-68
2022/09/08 00:12:05;;;;;;;1.83;1.52;;;;;;;21.33;66.77;98938.75;346641;28;1185;-68
2022/09/08 00:12:18;;;;;;;2.30;1.35;;;;;;;21.32;66.04;98938.88;346902;28;1679;-67
2022/09/08 00:12:30;;;;;;;2.47;1.55;;;;;;;21.30;65.26;98939.00;347184;28;1860;-68
2022/09/08 00:12:42;;;;;;;2.03;1.55;;;;;;;21.28;65.00;98940.13;347882;28;1888;-68
2022/09/08 00:12:54;;;;;;;2.80;1.55;;;;;;;21.27;64.83;98934.00;347922;28;1026;-68
2022/09/08 00:13:07;;;;;;;3.10;1.50;;;;;;;21.30;65.05;98943.47;347182;28;1947;-68
2022/09/08 00:13:20;;;;;;;3.28;1.40;;;;;;;21.31;65.69;98939.88;346932;28;1392;-67
2022/09/08 00:13:35;;;;;;;2.33;1.30;;;;;;;21.33;65.95;98940.56;346566;28;1078;-67
2022/09/08 00:13:48;;;;;;;2.70;1.33;;;;;;;21.33;66.65;98932.63;347024;28;1263;-67
2022/09/08 00:14:06;;;;;;;2.58;1.42;;;;;;;21.34;66.21;98939.59;347956;28;1278;-68
2022/09/08 00:14:18;;;;;;;1.58;1.30;;;;;;;21.35;66.11;98941.28;347262;28;1577;-68
2022/09/08 00:14:32;;;;;;;1.95;1.30;;;;;;;21.34;64.74;98940.41;346550;28;1755;-67
2022/09/08 00:14:45;;;;;;;3.20;1.58;;;;;;;21.34;65.18;98939.59;346510;28;1113;-68
2022/09/08 00:14:58;;;;;;;3.88;1.50;;;;;;;21.35;65.31;98930.69;346640;28;1323;-67
2022/09/08 00:15:11;;;;;;;4.00;1.60;;;;;;;21.37;65.69;98933.19;346599;28;1770;-68
2022/09/08 00:15:23;;;;;;;2.70;1.60;;;;;;;21.37;66.03;98931.41;347093;28;1349;-66
2022/09/08 00:15:37;;;;;;;2.38;1.50;;;;;;;21.39;67.03;98932.09;347895;28;1156;-67
2022/09/08 00:15:49;;;;;;;2.05;1.30;;;;;;;21.41;67.43;98929.28;347863;28;1022;-68
2022/09/08 00:16:03;;;;;;;2.78;1.60;;;;;;;21.36;68.02;98937.63;346531;28;1109;-68
2022/09/08 00:16:20;;;;;;;2.97;1.70;;;;;;;21.35;67.04;98926.25;346259;28;2027;-67
2022/09/08 00:16:32;;;;;;;2.92;1.60;;;;;;;21.35;67.05;98930.69;347592;28;1602;-67
2022/09/08 00:16:44;;;;;;;2.88;1.52;;;;;;;21.36;67.58;98924.41;347296;28;2087;-66
2022/09/08 00:16:56;;;;;;;2.85;1.50;;;;;;;21.36;67.63;98932.34;347669;28;1661;-67
2022/09/08 00:17:08;;;;;;;1.58;1.30;;;;;;;21.38;67.04;98934.88;346503;28;1688;-67
2022/09/08 00:17:20;;;;;;;1.70;1.30;;;;;;;21.38;67.06;98930.41;347122;28;2006;-67
2022/09/08 00:17:32;;;;;;;2.97;1.40;;;;;;;21.39;67.20;98931.22;347786;28;1108;-68
2022/09/08 00:17:44;;;;;;;4.10;1.52;;;;;;;21.38;66.94;98930.41;346486;28;1030;-67
2022/09/08 00:17:57;;;;;;;3.60;1.45;;;;;;;21.38;66.86;98930.41;346332;28;966;-68
2022/09/08 00:18:09;;;;;;;2.28;1.38;;;;;;;21.38;66.98;98930.41;346370;28;1748;-67
2022/09/08 00:18:23;;;;;;;1.73;1.33;;;;;;;21.37;67.00;98931.41;346747;28;1445;-68
2022/09/08 00:18:36;;;;;;;1.80;1.43;;;;;;;21.36;66.98;98927.06;346309;28;1260;-67
2022/09/08 00:18:50;;;;;;;2.72;1.60;;;;;;;21.34;67.34;98929.84;347022;28;1838;-67
2022/09/08 00:19:04;;;;;;;3.42;1.60;;;;;;;21.35;67.20;98930.69;347951;28;1033;-67
2022/09/08 00:19:16;;;;;;;2.60;1.40;;;;;;;21.34;67.73;98929.00;346985;28;2077;-67
2022/09/08 00:19:29;;;;;;;3.10;1.58;;;;;;;21.35;67.87;98928.06;347034;28;1659;-68
2022/09/08 00:19:41;;;;;;;3.03;1.60;;;;;;;21.36;68.25;98932.34;346729;28;1753;-67
2022/09/08 00:19:53;;;;;;;3.30;1.83;;;;;;;21.36;68.76;98927.06;347872;28;1034;-68
2022/09/08 00:20:07;;;;;;;2.33;1.70;;;;;;;21.36;67.94;98921.78;347909;28;1073;-67
2022/09/08 00:20:19;;;;;;;2.10;1.58;;;;;;;21.38;67.98;98930.41;346823;28;1872;-67
2022/09/08 00:20:31;;;;;;;1.50;1.40;;;;;;;21.39;68.18;98928.59;347034;28;1731;-68
2022/09/08 00:20:43;;;;;;;1.40;1.30;;;;;;;21.40;68.32;98930.28;347701;28;1130;-67
2022/09/08 00:20:55;;;;;;;2.30;1.40;;;;;;;21.41;68.25;98929.28;348025;28;1306;-68
2022/09/08 00:21:08;;;;;;;3.28;1.50;;;;;;;21.42;68.40;98926.50;347462;28;1770;-67
2022/09/08 00:21:23;;;;;;;2.35;1.45;;;;;;;21.43;68.40;98922.94;346907;28;1737;-67
2022/09/08 00:21:35;;;;;;;2.38;1.48;;;;;;;21.44;68.08;98929.88;345571;28;942;-67
2022/09/08 00:21:47;;;;;;;2.40;1.58;;;;;;;21.43;67.66;98927.38;346708;28;1205;-67
2022/09/08 00:21:59;;;;;;;2.55;1.65;;;;;;;21.43;67.29;98927.38;347920;28;1058;-68
2022/09/08 00:22:11;;;;;;;1.90;1.60;;;;;;;21.43;67.21;98924.72;347170;28;1825;-67
2022/09/08 00:22:23;;;;;;;1.70;1.52;;;;;;;21.44;66.82;98923.78;346806;28;1635;-68
2022/09/08 00:22:35;;;;;;;2.17;1.60;;;;;;;21.40;66.07;98922.34;346543;28;1086;-67
2022/09/08 00:22:47;;;;;;;3.58;1.60;;;;;;;21.40;65.88;98923.19;347476;28;1290;-68
2022/09/08 00:22:59;;;;;;;3.72;1.70;;;;;;;21.41;65.76;98922.22;348089;28;1079;-67
2022/09/08 00:23:11;;;;;;;2.83;1.55;;;;;;;21.41;64.86;98924.88;346926;28;2022;-68
2022/09/08 00:23:23;;;;;;;1.70;1.50;;;;;;;21.39;65.04;98921.53;346421;28;2256;-67
2022/09/08 00:23:35;;;;;;;1.83;1.52;;;;;;;21.41;65.31;98919.56;346329;28;1298;-67
2022/09/08 00:23:47;;;;;;;1.75;1.50;;;;;;;21.39;65.61;98921.53;346585;28;1246;-66
2022/09/08 00:23:59;;;;;;;1.50;1.40;;;;;;;21.41;66.19;98926.66;346533;28;1196;-66
2022/09/08 00:24:11;;;;;;;2.63;1.65;;;;;;;21.41;66.79;98918.72;345821;28;2035;-66
2022/09/08 00:24:23;;;;;;;3.65;1.92;;;;;;;21.42;67.47;98921.22;347494;28;1599;-67
2022/09/08 00:24:35;;;;;;;3.07;1.90;;;;;;;21.43;67.72;98916.81;346976;28;2232;-67
2022/09/08 00:24:47;;;;;;;2.13;1.60;;;;;;;21.43;67.17;98917.66;346936;28;1857;-67
2022/09/08 00:24:59;;;;;;;1.93;1.73;;;;;;;21.42;67.95;98921.22;346547;28;2045;-67
2022/09/08 00:25:11;;;;;;;1.90;1.77;;;;;;;21.37;67.85;98920.81;347753;28;1853;-67
2022/09/08 00:25:23;;;;;;;2.13;1.77;;;;;;;21.35;67.70;98925.41;347873;28;1414;-67
2022/09/08 00:25:35;;;;;;;2.00;1.60;;;;;;;21.34;68.14;98919.25;347166;28;1911;-67
2022/09/08 00:25:47;;;;;;;1.70;1.60;;;;;;;21.35;68.18;98922.78;346323;28;1328;-67
2022/09/08 00:25:59;;;;;;;1.70;1.60;;;;;;;21.34;68.27;98921.91;346518;28;1165;-67
2022/09/08 00:26:12;;;;;;;1.75;1.65;;;;;;;21.34;68.61;98919.25;347604;28;1562;-67
2022/09/08 00:26:24;;;;;;;1.60;1.50;;;;;;;21.35;69.25;98915.66;347590;28;1310;-67
2022/09/08 00:26:36;;;;;;;1.50;1.40;;;;;;;21.35;68.24;98920.13;347561;28;1249;-68
2022/09/08 00:26:48;;;;;;;1.92;1.58;;;;;;;21.27;66.55;98917.28;347443;28;1066;-67
2022/09/08 00:27:00;;;;;;;2.05;1.50;;;;;;;21.27;66.32;98917.28;346278;28;1663;-68
2022/09/08 00:27:12;;;;;;;2.17;1.52;;;;;;;21.26;66.46;98915.63;346320;28;1097;-67
2022/09/08 00:27:25;;;;;;;2.20;1.58;;;;;;;21.26;66.66;98910.34;346512;28;1780;-67
2022/09/08 00:27:37;;;;;;;2.55;1.60;;;;;;;21.26;66.82;98913.81;347289;28;1932;-67
2022/09/08 00:27:49;;;;;;;2.22;1.48;;;;;;;21.27;66.55;98917.28;347481;28;1222;-67
2022/09/08 00:28:01;;;;;;;2.97;1.47;;;;;;;21.26;66.54;98915.63;347885;28;1955;-67
2022/09/08 00:28:13;;;;;;;3.70;1.50;;;;;;;21.27;66.79;98912.00;348028;28;1065;-67
2022/09/08 00:28:25;;;;;;;3.35;1.50;;;;;;;21.26;66.79;98911.19;346689;28;1365;-67
2022/09/08 00:28:37;;;;;;;3.10;1.70;;;;;;;21.25;67.41;98916.59;347910;28;1105;-68
2022/09/08 00:28:50;;;;;;;2.95;1.70;;;;;;;21.26;67.49;98915.63;347843;28;1162;-67
2022/09/08 00:29:02;;;;;;;3.28;1.70;;;;;;;21.26;67.47;98916.47;347953;28;1194;-67
2022/09/08 00:29:14;;;;;;;3.13;1.60;;;;;;;21.26;66.95;98918.28;347028;28;1710;-67
2022/09/08 00:29:26;;;;;;;4.10;1.70;;;;;;;21.26;67.25;98916.47;347356;28;1529;-67
2022/09/08 00:29:38;;;;;;;4.10;1.60;;;;;;;21.26;67.10;98910.34;346738;28;1046;-66
2022/09/08 00:29:50;;;;;;;4.00;1.50;;;;;;;21.26;67.39;98913.00;346600;28;1043;-67
2022/09/08 00:30:02;;;;;;;2.92;1.40;;;;;;;21.26;67.26;98913.81;346452;28;1158;-67
2022/09/08 00:30:14;;;;;;;3.45;1.48;;;;;;;21.26;67.45;98915.63;346927;28;1610;-68
2022/09/08 00:30:26;;;;;;;4.93;1.73;;;;;;;21.24;68.13;98918.41;347230;28;1078;-68
2022/09/08 00:30:39;;;;;;;3.97;1.80;;;;;;;21.23;68.27;98915.91;347620;28;1259;-67
2022/09/08 00:30:51;;;;;;;4.03;1.70;;;;;;;21.22;68.35;98915.06;347793;28;1241;-68
2022/09/08 00:31:06;;;;;;;2.53;1.70;;;;;;;21.22;68.50;98908.97;347727;28;1220;-68
2022/09/08 00:31:18;;;;;;;2.20;1.63;;;;;;;21.21;68.55;98917.84;346298;28;1470;-68
2022/09/08 00:31:30;;;;;;;2.35;1.70;;;;;;;21.21;68.78;98916.06;346898;28;2212;-68
2022/09/08 00:31:42;;;;;;;2.47;1.75;;;;;;;21.22;68.73;98909.78;347673;28;1138;-68
2022/09/08 00:31:54;;;;;;;2.92;1.83;;;;;;;21.24;68.51;98907.00;347549;28;1156;-68
2022/09/08 00:32:06;;;;;;;2.60;1.83;;;;;;;21.26;68.82;98910.34;347522;28;1085;-68
2022/09/08 00:32:20;;;;;;;2.20;1.80;;;;;;;21.26;68.90;98915.63;346635;28;1638;-67
2022/09/08 00:32:32;;;;;;;2.35;1.60;;;;;;;21.27;69.13;98912.00;346782;28;1204;-67
2022/09/08 00:32:44;;;;;;;2.58;1.60;;;;;;;21.27;69.11;98904.94;346273;28;1019;-67
2022/09/08 00:32:56;;;;;;;2.15;1.52;;;;;;;21.30;68.62;98911.75;346276;28;1129;-67
2022/09/08 00:33:08;;;;;;;1.73;1.60;;;;;;;21.30;69.05;98907.28;346113;28;1747;-67
2022/09/08 00:33:21;;;;;;;2.78;1.60;;;;;;;21.32;68.53;98910.63;346837;28;1829;-67
2022/09/08 00:33:33;;;;;;;3.00;1.60;;;;;;;21.33;68.65;98906.22;347689;28;1243;-68
2022/09/08 00:33:46;;;;;;;2.37;1.60;;;;;;;21.34;69.08;98908.69;347964;28;1018;-68
2022/09/08 00:33:58;;;;;;;2.30;1.60;;;;;;;21.36;69.11;98911.22;347637;28;1077;-67
2022/09/08 00:34:10;;;;;;;2.90;1.70;;;;;;;21.37;69.31;98912.88;346581;28;1742;-67
2022/09/08 00:34:22;;;;;;;3.40;1.80;;;;;;;21.37;69.25;98910.25;346813;28;1667;-67
2022/09/08 00:34:34;;;;;;;3.00;1.80;;;;;;;21.38;69.09;98913.72;346558;28;1843;-67
2022/09/08 00:34:46;;;;;;;2.35;1.77;;;;;;;21.38;68.89;98914.53;347137;28;1051;-66
2022/09/08 00:35:00;;;;;;;2.20;1.70;;;;;;;21.38;68.90;98911.06;347745;28;1161;-68
2022/09/08 00:35:14;;;;;;;1.95;1.67;;;;;;;21.38;68.11;98914.53;346394;28;1766;-67
2022/09/08 00:35:32;;;;;;;2.13;1.70;;;;;;;21.39;68.29;98915.38;346164;28;1819;-67
2022/09/08 00:35:44;;;;;;;2.85;1.77;;;;;;;21.39;68.36;98912.72;346313;28;1889;-67
2022/09/08 00:35:57;;;;;;;3.53;1.65;;;;;;;21.39;68.06;98918.88;347145;28;1921;-67
2022/09/08 00:36:17;;;;;;;3.15;1.70;;;;;;;21.40;68.66;98917.88;347117;28;1789;-68
2022/09/08 00:36:31;;;;;;;2.35;1.60;;;;;;;21.39;69.18;98918.88;346991;28;1893;-68
2022/09/08 00:36:43;;;;;;;2.60;1.63;;;;;;;21.41;69.61;98914.28;346601;28;1097;-68
2022/09/08 00:36:58;;;;;;;2.63;1.73;;;;;;;21.43;69.25;98916.81;346555;28;1013;-68
2022/09/08 00:37:09;;;;;;;2.70;1.83;;;;;;;21.41;69.10;98913.44;346336;28;1823;-67
2022/09/08 00:37:21;;;;;;;2.88;1.83;;;;;;;21.41;69.37;98916.94;346738;28;1405;-68
2022/09/08 00:37:36;;;;;;;2.33;1.80;;;;;;;21.42;69.65;98915.13;347829;28;1113;-67
2022/09/08 00:37:51;;;;;;;2.42;1.88;;;;;;;21.39;69.93;98918.88;347835;28;1077;-68
2022/09/08 00:38:03;;;;;;;2.47;1.80;;;;;;;21.41;69.65;98921.34;347803;28;1255;-67
2022/09/08 00:38:15;;;;;;;3.22;1.92;;;;;;;21.41;69.69;98919.56;346670;28;2274;-67
2022/09/08 00:38:30;;;;;;;3.67;2.00;;;;;;;21.40;69.33;98917.88;347083;28;1919;-66
2022/09/08 00:38:51;;;;;;;3.03;1.85;;;;;;;21.37;69.13;98923.47;346365;28;1078;-67
2022/09/08 00:39:03;;;;;;;2.85;1.73;;;;;;;21.38;69.58;98919.00;346036;28;1254;-68
2022/09/08 00:39:15;;;;;;;4.38;2.00;;;;;;;21.40;69.59;98923.19;346565;28;1804;-67
2022/09/08 00:39:27;;;;;;;4.97;2.00;;;;;;;21.41;68.88;98918.72;347208;28;1929;-68
2022/09/08 00:39:39;;;;;;;3.75;1.83;;;;;;;21.41;68.07;98918.72;345998;28;1050;-68
2022/09/08 00:39:51;;;;;;;2.03;1.60;;;;;;;21.42;67.96;98915.13;346488;28;2014;-67
2022/09/08 00:40:04;;;;;;;2.22;1.63;;;;;;;21.42;67.77;98915.94;347501;28;2011;-68
2022/09/08 00:40:16;;;;;;;2.30;1.70;;;;;;;21.34;67.85;98913.16;347376;28;1269;-66
2022/09/08 00:40:29;;;;;;;2.75;1.80;;;;;;;21.30;67.73;98914.41;346863;28;2119;-67
2022/09/08 00:40:46;;;;;;;3.28;1.73;;;;;;;21.24;67.90;98918.41;347043;28;1281;-67
2022/09/08 00:40:59;;;;;;;3.35;1.70;;;;;;;21.09;69.24;98917.16;347863;28;1910;-67
2022/09/08 00:41:12;;;;;;;2.25;1.60;;;;;;;20.98;69.26;98918.06;346947;28;1624;-67
2022/09/08 00:41:30;;;;;;;1.95;1.60;;;;;;;20.96;69.10;98906.78;346921;28;1970;-67
2022/09/08 00:41:45;;;;;;;2.33;1.70;;;;;;;21.00;69.20;98913.47;346582;28;1272;-67
2022/09/08 00:41:57;;;;;;;2.42;1.70;;;;;;;21.03;68.78;98904.47;346390;28;1495;-67
2022/09/08 00:42:09;;;;;;;2.10;1.70;;;;;;;21.06;68.55;98915.59;347778;28;1090;-67
2022/09/08 00:42:21;;;;;;;1.90;1.70;;;;;;;21.10;68.94;98910.88;346390;28;1288;-67
2022/09/08 00:42:33;;;;;;;1.98;1.70;;;;;;;21.14;68.74;98913.09;347662;28;1890;-68
2022/09/08 00:42:45;;;;;;;2.75;1.73;;;;;;;21.17;68.65;98903.22;347806;28;1022;-68
2022/09/08 00:43:03;;;;;;;2.67;1.70;;;;;;;21.23;68.70;98910.63;347808;28;1252;-67
2022/09/08 00:43:32;;;;;;;1.80;1.70;;;;;;;21.22;68.68;98904.50;346758;28;1719;-67
2022/09/08 00:43:47;;;;;;;2.58;1.88;;;;;;;21.20;68.37;98901.16;346139;28;1377;-68
2022/09/08 00:44:38;;;;;;;2.53;2.05;;;;;;;21.22;67.65;98898.38;346552;28;1005;-68
2022/09/08 00:44:53;;;;;;;1.73;1.60;;;;;;;21.21;68.76;98894.91;346165;28;1809;-68
2022/09/08 00:45:06;;;;;;;3.33;1.70;;;;;;;21.24;68.87;98899.09;346144;28;2116;-67
2022/09/08 00:45:19;;;;;;;3.38;1.70;;;;;;;21.23;68.78;98900.03;346380;28;1995;-68
2022/09/08 00:45:43;;;;;;;2.13;1.60;;;;;;;21.18;68.35;98894.34;347252;28;1104;-68
2022/09/08 00:45:58;;;;;;;2.15;1.80;;;;;;;21.22;68.15;98909.78;347929;28;1066;-67
2022/09/08 00:46:12;;;;;;;1.80;1.63;;;;;;;21.23;68.15;98894.75;345960;28;1878;-67
2022/09/08 00:46:42;;;;;;;2.15;1.60;;;;;;;21.26;68.25;98895.31;347683;28;2009;-67
2022/09/08 00:46:55;;;;;;;2.28;1.77;;;;;;;21.28;68.16;98897.84;346296;28;1181;-68
2022/09/08 00:47:22;;;;;;;2.40;1.80;;;;;;;21.27;67.85;98890.88;347018;28;1236;-68
2022/09/08 00:48:03;;;;;;;2.35;1.70;;;;;;;21.30;67.60;98895.91;347886;28;1361;-67
2022/09/08 00:48:17;;;;;;;2.40;1.60;;;;;;;21.31;67.48;98894.94;344801;28;1199;-68
2022/09/08 00:48:30;;;;;;;3.28;1.80;;;;;;;21.33;67.87;98895.63;347289;28;2024;-67
2022/09/08 00:48:52;;;;;;;3.80;1.80;;;;;;;21.35;67.64;98896.34;346327;28;1439;-67
2022/09/08 00:49:16;;;;;;;2.63;1.77;;;;;;;21.35;67.99;98899.81;347792;28;1084;-67
2022/09/08 00:49:29;;;;;;;2.17;1.80;;;;;;;21.35;67.84;98893.69;346818;28;1744;-67
2022/09/08 00:49:43;;;;;;;1.88;1.77;;;;;;;21.34;68.17;98894.66;346534;28;1288;-67
2022/09/08 00:50:05;;;;;;;2.20;1.70;;;;;;;21.35;68.76;98891.03;346921;28;1848;-68
2022/09/08 00:50:22;;;;;;;3.63;1.70;;;;;;;21.35;69.23;98891.03;346843;28;1914;-68
2022/09/08 00:50:34;;;;;;;3.70;1.90;;;;;;;21.35;69.01;98891.03;346869;28;1640;-67
2022/09/08 00:50:47;;;;;;;2.78;2.00;;;;;;;21.33;68.44;98883.25;347623;28;1255;-67
2022/09/08 00:50:59;;;;;;;2.00;1.80;;;;;;;21.33;68.47;98887.72;347892;28;1178;-67
2022/09/08 00:51:16;;;;;;;2.45;1.85;;;;;;;21.32;68.22;98888.66;347235;28;1798;-67
2022/09/08 00:51:29;;;;;;;2.53;1.90;;;;;;;21.30;68.59;98890.59;346874;28;2046;-67
2022/09/08 00:51:45;;;;;;;2.42;1.90;;;;;;;21.28;69.08;98887.25;346534;28;1098;-68
2022/09/08 00:51:58;;;;;;;2.22;1.80;;;;;;;21.27;68.87;98886.44;346506;28;1189;-67
2022/09/08 00:52:10;;;;;;;2.53;1.70;;;;;;;21.30;68.91;98885.31;347354;28;2096;-67
2022/09/08 00:52:24;;;;;;;3.03;1.70;;;;;;;21.31;68.62;98889.66;347357;28;1634;-67
2022/09/08 00:52:50;;;;;;;3.33;1.90;;;;;;;21.32;68.87;98883.38;347160;28;1042;-67
2022/09/08 00:53:09;;;;;;;3.67;2.00;;;;;;;21.31;68.33;98881.72;347449;28;1884;-67
2022/09/08 00:53:21;;;;;;;3.40;1.80;;;;;;;21.27;69.15;98886.44;347038;28;1309;-67
2022/09/08 00:53:39;;;;;;;3.05;1.80;;;;;;;21.28;68.89;98881.97;347517;28;1094;-67
2022/09/08 00:53:54;;;;;;;4.13;1.90;;;;;;;21.29;69.15;98889.78;346359;28;1326;-67
2022/09/08 00:54:06;;;;;;;3.50;1.90;;;;;;;21.30;69.01;98885.31;346446;28;1045;-67
2022/09/08 00:54:19;;;;;;;3.10;1.77;;;;;;;21.28;68.83;98881.97;347106;28;1830;-68
2022/09/08 00:54:31;;;;;;;2.50;1.80;;;;;;;21.28;68.41;98881.97;346288;28;1025;-67
2022/09/08 00:54:44;;;;;;;2.15;1.77;;;;;;;21.30;68.50;98882.69;346751;28;1786;-67
2022/09/08 00:54:56;;;;;;;2.65;1.88;;;;;;;21.29;68.79;98883.66;347846;28;1034;-67
2022/09/08 00:55:10;;;;;;;2.90;1.90;;;;;;;21.30;69.16;98885.31;347840;28;1296;-67
2022/09/08 00:55:22;;;;;;;2.88;1.90;;;;;;;21.30;69.14;98885.31;346776;28;1610;-67
2022/09/08 00:55:37;;;;;;;2.80;1.80;;;;;;;21.28;68.72;98885.44;347382;28;1105;-67
2022/09/08 00:55:49;;;;;;;2.55;1.88;;;;;;;21.21;68.38;98886.13;346829;28;1790;-67
2022/09/08 00:56:05;;;;;;;3.85;1.90;;;;;;;21.23;68.68;98884.19;346572;28;1282;-67
2022/09/08 00:56:17;;;;;;;3.53;1.60;;;;;;;21.26;68.58;98876.00;345869;28;1979;-68
2022/09/08 00:56:30;;;;;;;2.85;1.50;;;;;;;21.31;68.59;98876.44;346862;28;1497;-67
2022/09/08 00:56:44;;;;;;;2.90;1.60;;;;;;;21.33;68.72;98874.47;346565;28;1054;-67
2022/09/08 00:56:57;;;;;;;3.30;1.70;;;;;;;21.34;68.34;98876.97;346294;28;1345;-67
2022/09/08 00:57:09;;;;;;;3.97;1.80;;;;;;;21.33;68.12;98885.88;346250;28;2073;-67
2022/09/08 00:57:21;;;;;;;3.20;1.80;;;;;;;21.31;68.25;98887.00;347648;28;1811;-67
2022/09/08 00:57:33;;;;;;;2.40;1.80;;;;;;;21.31;67.97;98885.19;347576;28;1111;-67
2022/09/08 00:57:46;;;;;;;3.88;1.77;;;;;;;21.31;68.29;98881.72;347789;28;1094;-66
2022/09/08 00:57:58;;;;;;;4.60;1.77;;;;;;;21.30;67.75;98880.84;347948;28;1023;-67
2022/09/08 00:58:12;;;;;;;3.93;1.70;;;;;;;21.29;67.67;98888.94;347315;28;2113;-66
2022/09/08 00:58:24;;;;;;;2.00;1.70;;;;;;;21.27;67.70;98880.28;347207;28;1558;-67
2022/09/08 00:58:38;;;;;;;2.30;1.73;;;;;;;21.25;67.96;98876.94;347580;28;1282;-68
2022/09/08 00:58:50;;;;;;;2.65;1.70;;;;;;;21.25;68.09;98880.44;347236;28;1894;-67
2022/09/08 00:59:03;;;;;;;2.30;1.73;;;;;;;21.26;67.80;98882.09;346401;28;1039;-67
2022/09/08 00:59:18;;;;;;;3.40;1.70;;;;;;;21.25;68.40;98876.94;346401;28;1771;-67
2022/09/08 00:59:33;;;;;;;4.45;1.88;;;;;;;21.26;68.35;98883.91;346467;28;1790;-68
2022/09/08 00:59:46;;;;;;;5.20;1.90;;;;;;;21.26;68.56;98884.75;346358;28;1383;-67
2022/09/08 00:59:59;;;;;;;5.20;1.77;;;;;;;21.25;68.48;98876.94;346484;28;1031;-67
2022/09/08 01:00:16;;;;;;;3.80;1.80;;;;;;;21.26;68.73;98878.63;346586;28;1776;-68
2022/09/08 01:00:28;;;;;;;3.22;1.98;;;;;;;21.27;68.16;98880.28;347813;28;1107;-67
2022/09/08 01:00:43;;;;;;;2.20;2.00;;;;;;;21.28;68.15;98881.97;347774;28;1247;-66
2022/09/08 01:00:55;;;;;;;2.70;2.00;;;;;;;21.30;68.68;98878.22;346852;28;1719;-67
2022/09/08 01:01:07;;;;;;;3.60;1.80;;;;;;;21.31;68.68;98879.91;346936;28;2054;-67
2022/09/08 01:01:19;;;;;;;3.72;1.80;;;;;;;21.32;68.80;98878.09;347337;28;1329;-67
2022/09/08 01:01:33;;;;;;;4.20;1.90;;;;;;;21.32;68.45;98878.91;347256;28;1075;-67
2022/09/08 01:01:46;;;;;;;3.53;2.00;;;;;;;21.35;68.38;98872.53;347531;28;1323;-67
2022/09/08 01:01:59;;;;;;;2.33;2.00;;;;;;;21.33;68.72;98880.59;347726;28;1300;-67
2022/09/08 01:02:22;;;;;;;2.30;1.90;;;;;;;21.35;68.68;98877.81;347316;28;1822;-67
2022/09/08 01:02:34;;;;;;;2.15;1.85;;;;;;;21.36;68.25;98879.47;347774;28;1057;-67
2022/09/08 01:02:47;;;;;;;2.17;1.80;;;;;;;21.37;68.55;98883.81;347882;28;1022;-67
2022/09/08 01:02:59;;;;;;;1.98;1.70;;;;;;;21.38;68.54;98880.19;347766;28;1069;-67
2022/09/08 01:03:15;;;;;;;3.47;1.67;;;;;;;21.40;68.51;98880.88;347281;28;1879;-67
2022/09/08 01:03:27;;;;;;;3.40;1.70;;;;;;;21.41;68.13;98879.91;347382;28;1451;-67
2022/09/08 01:03:41;;;;;;;3.10;1.60;;;;;;;21.42;68.30;98878.94;346593;28;1844;-67
2022/09/08 01:03:55;;;;;;;4.30;1.75;;;;;;;21.44;68.27;98882.31;347616;28;1039;-67
2022/09/08 01:04:08;;;;;;;4.85;2.00;;;;;;;21.44;68.61;98881.47;347787;28;1038;-67
2022/09/08 01:04:21;;;;;;;4.10;1.98;;;;;;;21.45;68.41;98877.84;347041;28;1524;-67
2022/09/08 01:04:33;;;;;;;2.72;1.90;;;;;;;21.43;69.27;98877.13;347460;28;1019;-67
2022/09/08 01:04:46;;;;;;;3.20;1.88;;;;;;;21.44;68.95;98877.00;347932;28;1073;-67
2022/09/08 01:05:04;;;;;;;2.55;1.83;;;;;;;21.45;68.69;98878.69;347773;28;1121;-68
2022/09/08 01:05:20;;;;;;;2.00;1.80;;;;;;;21.46;68.54;98879.53;346495;28;1629;-67
2022/09/08 01:05:52;;;;;;;1.92;1.70;;;;;;;21.48;68.46;98875.75;346665;28;1761;-67
2022/09/08 01:12:43;;;;;;;3.45;1.80;;;;;;;21.48;68.39;98874.94;347909;28;1074;-67
2022/09/08 01:12:54;;;;;;;3.10;1.90;;;;;;;21.43;68.40;98874.50;347306;28;1905;-67
2022/09/08 01:13:08;;;;;;;2.70;1.70;;;;;;;21.44;68.55;98869.09;347883;28;1169;-67
2022/09/08 01:13:22;;;;;;;1.70;1.60;;;;;;;21.46;68.26;98874.25;347721;28;1350;-67
2022/09/08 01:13:37;;;;;;;1.80;1.70;;;;;;;21.46;67.96;98875.06;347794;28;1035;-67